createdAt,value
2018-05-10T00:01:59.295Z,8.23
2018-05-10T00:04:26.924Z,8.30
2018-05-10T00:06:54.554Z,9.03
2018-05-10T00:09:22.166Z,9.10
2018-05-10T00:11:49.803Z,8.43
2018-05-10T00:14:17.472Z,9.17
2018-05-10T00:16:45.102Z,9.40
2018-05-10T00:19:12.797Z,9.40
2018-05-10T00:21:40.438Z,8.57
2018-05-10T00:24:08.041Z,9.47
2018-05-10T00:26:35.787Z,8.90
2018-05-10T00:29:03.411Z,8.47
2018-05-10T00:31:31.060Z,7.80
2018-05-10T00:33:58.771Z,9.47
2018-05-10T00:36:26.431Z,10.00
2018-05-10T00:38:54.042Z,8.57
2018-05-10T00:41:21.684Z,10.00
2018-05-10T00:43:49.320Z,10.47
2018-05-10T00:46:16.954Z,9.93
2018-05-10T00:48:44.562Z,9.20
2018-05-10T00:51:12.183Z,10.13
2018-05-10T00:53:39.822Z,11.07
2018-05-10T00:56:07.435Z,9.30
2018-05-10T00:58:35.077Z,10.73
2018-05-10T01:01:02.750Z,10.23
2018-05-10T01:03:30.391Z,10.97
2018-05-10T01:05:58.074Z,9.57
2018-05-10T01:08:25.739Z,10.43
2018-05-10T01:10:53.399Z,10.60
2018-05-10T01:13:21.095Z,10.83
2018-05-10T01:15:48.683Z,11.20
2018-05-10T01:18:16.378Z,10.20
2018-05-10T01:20:43.992Z,9.33
2018-05-10T01:23:11.631Z,11.33
2018-05-10T01:25:39.250Z,10.90
2018-05-10T01:28:06.883Z,9.87
2018-05-10T01:30:34.498Z,10.87
2018-05-10T01:33:02.151Z,10.50
2018-05-10T01:38:30.041Z,12.73
2018-05-10T01:40:57.659Z,9.80
2018-05-10T01:43:25.302Z,12.10
2018-05-10T01:45:52.920Z,12.60
2018-05-10T01:48:20.586Z,12.73
2018-05-10T01:50:48.194Z,11.57
2018-05-10T01:53:15.914Z,11.40
2018-05-10T01:55:43.538Z,11.17
2018-05-10T01:58:11.243Z,11.47
2018-05-10T02:00:38.898Z,10.77
2018-05-10T02:03:06.559Z,11.87
2018-05-10T02:05:34.222Z,11.30
2018-05-10T02:08:01.891Z,11.23
2018-05-10T02:10:35.063Z,10.80
2018-05-10T02:13:02.718Z,11.33
2018-05-10T02:15:30.335Z,12.53
2018-05-10T02:17:57.962Z,12.17
2018-05-10T02:20:25.626Z,14.77
2018-05-10T02:22:53.286Z,14.07
2018-05-10T02:25:20.929Z,13.33
2018-05-10T02:27:48.542Z,13.93
2018-05-10T02:30:16.171Z,13.97
2018-05-10T02:32:43.834Z,13.90
2018-05-10T02:35:11.467Z,13.50
2018-05-10T02:37:39.163Z,14.33
2018-05-10T02:40:06.798Z,14.23
2018-05-10T02:42:34.486Z,14.30
2018-05-10T02:45:02.171Z,14.60
2018-05-10T02:47:29.789Z,13.63
2018-05-10T02:49:57.460Z,13.60
2018-05-10T02:52:25.146Z,13.50
2018-05-10T02:54:52.787Z,13.80
2018-05-10T02:57:20.398Z,15.43
2018-05-10T02:59:48.043Z,12.10
2018-05-10T03:02:15.659Z,13.50
2018-05-10T03:04:43.308Z,10.57
2018-05-10T03:07:11.006Z,13.43
2018-05-10T03:09:38.642Z,13.77
2018-05-10T03:12:06.254Z,13.27
2018-05-10T03:14:33.915Z,12.73
2018-05-10T03:17:01.559Z,13.40
2018-05-10T03:19:29.218Z,14.73
2018-05-10T03:21:56.834Z,13.80
2018-05-10T03:24:24.482Z,13.50
2018-05-10T03:26:52.203Z,12.43
2018-05-10T03:29:19.810Z,12.70
2018-05-10T03:31:47.529Z,11.90
2018-05-10T03:34:15.146Z,12.07
2018-05-10T03:36:42.798Z,14.43
2018-05-10T03:39:10.410Z,12.80
2018-05-10T03:41:38.078Z,13.57
2018-05-10T03:44:05.738Z,11.97
2018-05-10T03:46:33.401Z,11.00
2018-05-10T03:49:01.010Z,15.20
2018-05-10T03:51:28.645Z,12.57
2018-05-10T03:53:56.291Z,12.97
2018-05-10T03:56:23.953Z,11.03
2018-05-10T03:58:51.566Z,11.10
2018-05-10T04:01:19.206Z,12.27
2018-05-10T04:03:58.609Z,13.90
2018-05-10T04:06:38.050Z,12.00
2018-05-10T04:09:17.346Z,12.13
2018-05-10T04:11:45.050Z,11.53
2018-05-10T04:14:12.715Z,11.93
2018-05-10T04:16:40.350Z,12.23
2018-05-10T04:19:07.966Z,11.27
2018-05-10T04:21:35.694Z,11.33
2018-05-10T04:24:03.358Z,12.87
2018-05-10T04:26:31.005Z,11.43
2018-05-10T04:28:58.617Z,12.67
2018-05-10T04:31:26.251Z,11.20
2018-05-10T04:33:53.891Z,11.33
2018-05-10T04:36:21.498Z,12.90
2018-05-10T04:38:49.130Z,11.40
2018-05-10T04:41:16.791Z,11.90
2018-05-10T04:43:44.454Z,10.73
2018-05-10T04:46:12.127Z,11.27
2018-05-10T04:48:39.782Z,10.93
2018-05-10T04:51:07.402Z,10.80
2018-05-10T04:53:35.070Z,10.80
2018-05-10T04:56:02.682Z,11.57
2018-05-10T04:58:30.314Z,9.60
2018-05-10T05:00:57.926Z,11.27
2018-05-10T05:03:25.590Z,10.53
2018-05-10T05:05:53.199Z,9.63
2018-05-10T05:08:20.839Z,12.67
2018-05-10T05:10:48.542Z,13.73
2018-05-10T05:13:16.199Z,12.60
2018-05-10T05:15:43.858Z,11.40
2018-05-10T05:18:11.494Z,10.43
2018-05-10T05:20:39.110Z,10.63
2018-05-10T05:23:06.750Z,12.43
2018-05-10T05:25:34.361Z,11.00
2018-05-10T05:28:02.010Z,10.83
2018-05-10T05:30:29.614Z,9.30
2018-05-10T05:32:57.290Z,10.00
2018-05-10T05:35:24.954Z,9.37
2018-05-10T05:37:52.558Z,9.43
2018-05-10T05:40:20.383Z,9.30
2018-05-10T05:42:47.993Z,8.87
2018-05-10T05:45:15.617Z,8.50
2018-05-10T05:47:43.267Z,8.27
2018-05-10T05:50:10.933Z,8.90
2018-05-10T05:52:38.595Z,8.10
2018-05-10T05:55:06.324Z,7.27
2018-05-10T05:57:33.878Z,8.77
2018-05-10T06:00:01.510Z,7.27
2018-05-10T06:02:29.124Z,7.80
2018-05-10T06:04:56.806Z,7.47
2018-05-10T06:07:24.466Z,7.30
2018-05-10T06:09:52.094Z,6.97
2018-05-10T06:12:19.712Z,8.23
2018-05-10T06:14:47.345Z,7.17
2018-05-10T06:17:15.015Z,7.60
2018-05-10T06:19:42.643Z,6.73
2018-05-10T06:22:10.334Z,7.83
2018-05-10T06:24:37.966Z,7.30
2018-05-10T06:27:05.579Z,6.57
2018-05-10T06:29:33.321Z,7.07
2018-05-10T06:32:00.989Z,7.00
2018-05-10T06:34:28.619Z,7.33
2018-05-10T06:36:56.226Z,6.60
2018-05-10T06:39:23.974Z,8.00
2018-05-10T06:41:51.636Z,8.17
2018-05-10T06:44:19.242Z,7.80
2018-05-10T06:46:46.894Z,7.87
2018-05-10T06:49:14.594Z,7.57
2018-05-10T06:51:42.291Z,7.97
2018-05-10T06:54:09.960Z,7.37
2018-05-10T06:56:37.560Z,7.60
2018-05-10T06:59:05.174Z,8.03
2018-05-10T07:01:32.803Z,7.63
2018-05-10T07:04:00.412Z,8.03
2018-05-10T07:06:28.163Z,6.90
2018-05-10T07:08:55.854Z,7.80
2018-05-10T07:11:23.562Z,8.85
2018-05-10T07:13:51.350Z,7.78
2018-05-10T07:16:18.979Z,8.13
2018-05-10T07:18:46.592Z,8.37
2018-05-10T07:21:14.227Z,8.27
2018-05-10T07:23:41.842Z,9.30
2018-05-10T07:26:09.469Z,8.10
2018-05-10T07:28:37.106Z,7.97
2018-05-10T07:31:04.782Z,8.07
2018-05-10T07:33:32.394Z,8.40
2018-05-10T07:36:00.028Z,8.50
2018-05-10T07:38:27.634Z,8.87
2018-05-10T07:40:55.262Z,8.80
2018-05-10T07:43:22.891Z,8.30
2018-05-10T07:45:50.518Z,8.10
2018-05-10T07:48:18.125Z,8.40
2018-05-10T07:50:45.752Z,8.70
2018-05-10T07:53:13.541Z,8.57
2018-05-10T07:55:41.201Z,9.83
2018-05-10T07:58:08.869Z,9.30
2018-05-10T08:00:36.541Z,9.40
2018-05-10T08:03:04.178Z,10.83
2018-05-10T08:05:31.786Z,7.83
2018-05-10T08:07:59.519Z,8.50
2018-05-10T08:10:27.139Z,8.50
2018-05-10T08:12:54.838Z,8.30
2018-05-10T08:15:22.507Z,7.50
2018-05-10T08:17:50.170Z,8.60
2018-05-10T08:20:17.826Z,8.50
2018-05-10T08:22:45.462Z,8.80
2018-05-10T08:25:13.075Z,8.67
2018-05-10T08:27:46.644Z,8.90
2018-05-10T08:30:14.341Z,9.10
2018-05-10T08:32:41.974Z,9.20
2018-05-10T08:35:09.578Z,9.10
2018-05-10T08:37:37.206Z,8.57
2018-05-10T08:40:04.866Z,8.63
2018-05-10T08:42:32.551Z,8.50
2018-05-10T08:45:00.205Z,8.50
2018-05-10T08:47:27.813Z,7.70
2018-05-10T08:49:55.423Z,7.83
2018-05-10T08:52:23.061Z,9.20
2018-05-10T08:54:50.738Z,8.40
2018-05-10T08:57:18.367Z,8.60
2018-05-10T08:59:45.971Z,8.23
2018-05-10T09:02:13.622Z,8.73
2018-05-10T09:04:41.240Z,8.60
2018-05-10T09:07:08.945Z,8.43
2018-05-10T09:09:36.557Z,9.80
2018-05-10T09:12:04.171Z,9.00
2018-05-10T09:14:31.835Z,9.10
2018-05-10T09:16:59.491Z,8.50
2018-05-10T09:19:27.155Z,8.63
2018-05-10T09:21:54.771Z,8.07
2018-05-10T09:24:22.402Z,8.13
2018-05-10T09:26:50.042Z,8.77
2018-05-10T09:29:17.702Z,7.90
2018-05-10T09:31:45.307Z,6.80
2018-05-10T09:34:12.938Z,7.63
2018-05-10T09:36:40.542Z,8.90
2018-05-10T09:39:08.296Z,7.73
2018-05-10T09:41:35.910Z,8.73
2018-05-10T09:44:03.538Z,8.23
2018-05-10T09:46:31.236Z,8.50
2018-05-10T09:48:58.869Z,8.60
2018-05-10T09:51:26.474Z,7.40
2018-05-10T09:53:54.102Z,8.00
2018-05-10T09:56:21.710Z,8.17
2018-05-10T09:58:49.346Z,9.97
2018-05-10T10:01:16.949Z,9.30
2018-05-10T10:03:44.582Z,9.50
2018-05-10T10:06:12.284Z,8.23
2018-05-10T10:08:39.894Z,8.90
2018-05-10T10:11:07.498Z,8.87
2018-05-10T10:13:35.130Z,9.07
2018-05-10T10:16:02.782Z,8.73
2018-05-10T10:18:30.410Z,8.50
2018-05-10T10:20:58.097Z,8.80
2018-05-10T10:23:25.706Z,7.73
2018-05-10T10:25:53.426Z,8.17
2018-05-10T10:28:21.030Z,8.07
2018-05-10T10:30:48.664Z,6.90
2018-05-10T10:33:16.274Z,7.40
2018-05-10T10:35:43.912Z,8.00
2018-05-10T10:38:11.553Z,7.10
2018-05-10T10:40:39.187Z,7.23
2018-05-10T10:43:06.794Z,7.90
2018-05-10T10:45:34.422Z,7.80
2018-05-10T10:48:02.084Z,7.10
2018-05-10T10:50:29.743Z,7.43
2018-05-10T10:52:57.502Z,7.20
2018-05-10T10:55:25.055Z,6.60
2018-05-10T10:57:52.729Z,6.77
2018-05-10T11:00:20.361Z,7.23
2018-05-10T11:02:48.062Z,6.80
2018-05-10T11:05:15.685Z,7.00
2018-05-10T11:07:43.318Z,6.80
2018-05-10T11:10:10.949Z,6.37
2018-05-10T11:12:38.570Z,5.83
2018-05-10T11:15:06.240Z,6.23
2018-05-10T11:17:33.830Z,6.93
2018-05-10T11:20:01.499Z,6.97
2018-05-10T11:22:29.166Z,7.40
2018-05-10T11:24:56.914Z,6.90
2018-05-10T11:27:24.595Z,7.30
2018-05-10T11:29:52.186Z,6.60
2018-05-10T11:32:19.798Z,5.73
2018-05-10T11:34:47.466Z,6.53
2018-05-10T11:37:15.094Z,7.33
2018-05-10T11:39:42.708Z,6.80
2018-05-10T11:42:10.450Z,5.93
2018-05-10T11:44:38.058Z,6.20
2018-05-10T11:47:05.855Z,6.80
2018-05-10T11:49:33.539Z,6.40
2018-05-10T11:52:01.167Z,6.10
2018-05-10T11:54:28.779Z,6.50
2018-05-10T11:56:56.422Z,6.90
2018-05-10T11:59:24.086Z,6.33
2018-05-10T12:01:51.715Z,6.67
2018-05-10T12:04:19.326Z,5.60
2018-05-10T12:06:47.163Z,5.67
2018-05-10T12:09:14.774Z,5.77
2018-05-10T12:11:42.402Z,6.57
2018-05-10T12:14:10.008Z,6.80
2018-05-10T12:16:37.643Z,6.70
2018-05-10T12:19:05.251Z,6.47
2018-05-10T12:21:32.951Z,6.80
2018-05-10T12:24:00.615Z,6.63
2018-05-10T12:26:28.246Z,6.13
2018-05-10T12:28:55.853Z,5.80
2018-05-10T12:31:23.483Z,4.90
2018-05-10T12:33:51.286Z,5.50
2018-05-10T12:36:18.922Z,5.57
2018-05-10T12:38:46.581Z,5.33
2018-05-10T12:41:14.767Z,5.00
2018-05-10T12:43:42.419Z,5.50
2018-05-10T12:46:10.051Z,5.47
2018-05-10T12:48:37.767Z,5.43
2018-05-10T12:51:05.510Z,5.60
2018-05-10T12:53:33.172Z,4.57
2018-05-10T12:56:00.823Z,4.23
2018-05-10T12:58:28.499Z,4.53
2018-05-10T13:00:56.107Z,4.40
2018-05-10T13:03:23.819Z,4.57
2018-05-10T13:05:51.485Z,4.53
2018-05-10T13:08:19.184Z,4.97
2018-05-10T13:10:46.756Z,4.80
2018-05-10T13:13:14.479Z,4.13
2018-05-10T13:15:42.134Z,5.10
2018-05-10T13:18:09.761Z,5.70
2018-05-10T13:20:37.366Z,4.80
2018-05-10T13:23:05.023Z,4.60
2018-05-10T13:25:32.630Z,4.40
2018-05-10T13:28:00.262Z,4.80
2018-05-10T13:30:27.866Z,3.43
2018-05-10T13:32:55.567Z,4.30
2018-05-10T13:35:23.231Z,4.50
2018-05-10T13:37:50.890Z,5.13
2018-05-10T13:40:18.560Z,4.97
2018-05-10T13:42:46.214Z,5.80
2018-05-10T13:45:13.827Z,5.40
2018-05-10T13:47:41.479Z,4.93
2018-05-10T13:50:09.087Z,5.43
2018-05-10T13:52:36.718Z,4.83
2018-05-10T13:55:04.322Z,4.73
2018-05-10T13:57:31.950Z,6.40
2018-05-10T13:59:59.555Z,5.13
2018-05-10T14:02:27.315Z,4.67
2018-05-10T14:04:54.974Z,5.03
2018-05-10T14:07:22.638Z,3.90
2018-05-10T14:09:50.267Z,4.90
2018-05-10T14:12:17.877Z,5.33
2018-05-10T14:14:45.523Z,4.63
2018-05-10T14:17:13.183Z,4.87
2018-05-10T14:19:40.846Z,4.03
2018-05-10T14:22:08.578Z,4.60
2018-05-10T14:24:36.105Z,5.00
2018-05-10T14:27:03.716Z,4.60
2018-05-10T14:29:31.359Z,4.47
2018-05-10T14:31:59.002Z,4.50
2018-05-10T14:34:26.635Z,5.13
2018-05-10T14:36:54.242Z,4.50
2018-05-10T14:39:21.948Z,4.80
2018-05-10T14:41:49.566Z,4.83
2018-05-10T14:44:17.271Z,4.13
2018-05-10T14:46:44.896Z,4.50
2018-05-10T14:49:12.585Z,4.40
2018-05-10T14:51:40.187Z,4.37
2018-05-10T14:54:07.847Z,5.03
2018-05-10T14:56:35.479Z,3.90
2018-05-10T14:59:03.138Z,5.53
2018-05-10T15:01:30.755Z,4.27
2018-05-10T15:03:58.381Z,4.77
2018-05-10T15:06:25.990Z,4.83
2018-05-10T15:08:53.685Z,4.40
2018-05-10T15:11:21.347Z,4.67
2018-05-10T15:13:49.011Z,4.83
2018-05-10T15:16:16.626Z,4.13
2018-05-10T15:18:44.234Z,5.03
2018-05-10T15:21:11.862Z,5.00
2018-05-10T15:23:39.600Z,5.50
2018-05-10T15:26:07.206Z,5.20
2018-05-10T15:28:34.818Z,5.10
2018-05-10T15:31:02.446Z,5.30
2018-05-10T15:33:30.050Z,4.73
2018-05-10T15:35:57.698Z,5.50
2018-05-10T15:38:25.312Z,5.40
2018-05-10T15:40:52.947Z,4.90
2018-05-10T15:43:20.564Z,6.33
2018-05-10T15:45:48.211Z,8.87
2018-05-10T15:48:15.826Z,5.63
2018-05-10T15:50:43.542Z,12.43
2018-05-10T15:53:11.146Z,7.00
2018-05-10T15:55:38.770Z,5.00
2018-05-10T15:58:06.422Z,7.13
2018-05-10T16:00:34.055Z,5.03
2018-05-10T16:03:01.673Z,5.80
2018-05-10T16:05:29.304Z,5.30
2018-05-10T16:07:56.967Z,5.73
2018-05-10T16:10:24.598Z,6.17
2018-05-10T16:12:52.291Z,6.10
2018-05-10T16:15:19.954Z,7.07
2018-05-10T16:17:47.557Z,5.93
2018-05-10T16:20:15.186Z,5.30
2018-05-10T16:22:42.795Z,5.77
2018-05-10T16:25:10.431Z,5.80
2018-05-10T16:27:38.042Z,8.20
2018-05-10T16:30:05.722Z,7.10
2018-05-10T16:32:33.391Z,5.77
2018-05-10T16:35:01.046Z,6.40
2018-05-10T16:37:28.678Z,5.87
2018-05-10T16:39:56.374Z,6.60
2018-05-10T16:42:24.034Z,6.03
2018-05-10T16:44:51.698Z,5.80
2018-05-10T16:47:19.327Z,7.30
2018-05-10T16:49:46.979Z,9.20
2018-05-10T16:52:14.682Z,7.13
2018-05-10T16:54:42.291Z,5.03
2018-05-10T16:57:10.015Z,5.10
2018-05-10T16:59:37.674Z,18.83
2018-05-10T17:02:05.305Z,14.70
2018-05-10T17:04:32.994Z,5.80
2018-05-10T17:07:00.966Z,6.00
2018-05-10T17:09:28.735Z,7.50
2018-05-10T17:11:56.394Z,6.87
2018-05-10T17:14:24.011Z,6.83
2018-05-10T17:16:51.646Z,6.77
2018-05-10T17:19:19.278Z,6.90
2018-05-10T17:21:46.910Z,6.00
2018-05-10T17:24:14.510Z,6.03
2018-05-10T17:26:42.139Z,6.47
2018-05-10T17:29:09.833Z,6.77
2018-05-10T17:31:37.586Z,6.43
2018-05-10T17:34:05.352Z,7.40
2018-05-10T17:36:33.123Z,13.53
2018-05-10T17:39:01.291Z,9.27
2018-05-10T17:41:28.932Z,7.80
2018-05-10T17:43:56.543Z,8.93
2018-05-10T17:46:24.225Z,9.43
2018-05-10T17:48:51.862Z,7.70
2018-05-10T17:51:19.470Z,7.33
2018-05-10T17:53:47.112Z,16.20
2018-05-10T17:56:14.831Z,11.23
2018-05-10T17:58:42.474Z,10.83
2018-05-10T18:01:10.192Z,11.37
2018-05-10T18:03:37.915Z,9.50
2018-05-10T18:06:05.582Z,8.80
2018-05-10T18:08:33.212Z,8.77
2018-05-10T18:11:00.898Z,9.57
2018-05-10T18:13:28.535Z,9.93
2018-05-10T18:15:56.155Z,8.67
2018-05-10T18:18:23.896Z,8.53
2018-05-10T18:20:51.554Z,8.40
2018-05-10T18:23:19.258Z,10.80
2018-05-10T18:25:46.864Z,9.33
2018-05-10T18:28:14.546Z,10.60
2018-05-10T18:30:42.201Z,10.53
2018-05-10T18:33:09.884Z,8.80
2018-05-10T18:35:37.466Z,9.63
2018-05-10T18:38:05.191Z,12.57
2018-05-10T18:40:32.802Z,11.07
2018-05-10T18:43:00.515Z,9.20
2018-05-10T18:45:28.174Z,8.50
2018-05-10T18:47:55.811Z,7.90
2018-05-10T18:50:24.297Z,9.07
2018-05-10T18:52:52.081Z,7.70
2018-05-10T18:55:20.328Z,10.20
2018-05-10T18:57:48.022Z,9.80
2018-05-10T19:00:15.630Z,9.67
2018-05-10T19:02:43.245Z,10.23
2018-05-10T19:05:10.870Z,8.47
2018-05-10T19:07:38.574Z,10.30
2018-05-10T19:10:06.231Z,11.80
2018-05-10T19:12:33.899Z,11.90
2018-05-10T19:15:01.531Z,12.97
2018-05-10T19:17:29.224Z,13.80
2018-05-10T19:19:56.886Z,16.40
2018-05-10T19:22:24.499Z,14.20
2018-05-10T19:24:52.138Z,15.27
2018-05-10T19:27:19.765Z,14.77
2018-05-10T19:29:47.403Z,15.13
2018-05-10T19:32:15.026Z,17.33
2018-05-10T19:34:42.758Z,17.10
2018-05-10T19:37:10.537Z,16.77
2018-05-10T19:39:38.154Z,16.00
2018-05-10T19:42:05.774Z,16.03
2018-05-10T19:44:33.504Z,15.40
2018-05-10T19:47:01.383Z,15.77
2018-05-10T19:49:29.018Z,17.00
2018-05-10T19:51:56.634Z,19.27
2018-05-10T19:54:24.277Z,18.57
2018-05-10T19:56:51.971Z,18.87
2018-05-10T19:59:19.554Z,19.23
2018-05-10T20:01:47.202Z,17.33
2018-05-10T20:04:14.850Z,19.83
2018-05-10T20:06:42.514Z,19.87
2018-05-10T20:09:10.231Z,21.57
2018-05-10T20:11:37.847Z,23.73
2018-05-10T20:14:05.558Z,22.30
2018-05-10T20:16:33.166Z,23.27
2018-05-10T20:19:00.786Z,23.03
2018-05-10T20:21:28.442Z,26.90
2018-05-10T20:23:56.097Z,27.93
2018-05-10T20:26:23.727Z,21.60
2018-05-10T20:28:51.352Z,21.23
2018-05-10T20:31:18.990Z,20.53
2018-05-10T20:33:46.659Z,23.00
2018-05-10T20:36:14.300Z,22.00
2018-05-10T20:38:41.924Z,24.77
2018-05-10T20:41:09.597Z,19.90
2018-05-10T20:43:37.303Z,17.70
2018-05-10T20:46:04.938Z,18.03
2018-05-10T20:48:32.561Z,17.67
2018-05-10T20:51:00.291Z,17.10
2018-05-10T20:53:27.950Z,19.70
2018-05-10T20:55:55.613Z,22.07
2018-05-10T20:58:23.278Z,22.00
2018-05-10T21:00:50.918Z,21.60
2018-05-10T21:03:18.534Z,19.83
2018-05-10T21:05:46.783Z,17.50
2018-05-10T21:08:14.438Z,19.20
2018-05-10T21:10:42.094Z,16.37
2018-05-10T21:13:10.331Z,18.40
2018-05-10T21:15:38.034Z,18.17
2018-05-10T21:18:06.002Z,17.57
2018-05-10T21:20:33.641Z,16.90
2018-05-10T21:23:01.254Z,17.50
2018-05-10T21:25:28.995Z,17.87
2018-05-10T21:27:56.654Z,18.87
2018-05-10T21:30:24.341Z,17.03
2018-05-10T21:32:51.979Z,16.17
2018-05-10T21:35:19.619Z,16.90
2018-05-10T21:37:47.264Z,14.30
2018-05-10T21:40:14.879Z,15.23
2018-05-10T21:42:42.514Z,15.30
2018-05-10T21:45:10.193Z,16.37
2018-05-10T21:47:37.826Z,15.50
2018-05-10T21:50:06.432Z,15.27
2018-05-10T21:52:34.071Z,15.40
2018-05-10T21:55:01.747Z,15.60
2018-05-10T21:57:29.422Z,16.83
2018-05-10T21:59:57.087Z,15.57
2018-05-10T22:02:24.757Z,14.57
2018-05-10T22:04:52.365Z,15.63
2018-05-10T22:07:20.077Z,15.10
2018-05-10T22:09:47.695Z,15.00
2018-05-10T22:12:15.364Z,17.90
2018-05-10T22:14:42.970Z,17.70
2018-05-10T22:17:10.626Z,16.20
2018-05-10T22:19:38.265Z,13.70
2018-05-10T22:22:05.904Z,14.20
2018-05-10T22:24:33.682Z,14.67
2018-05-10T22:27:01.285Z,13.90
2018-05-10T22:29:28.931Z,13.53
2018-05-10T22:31:56.572Z,13.47
2018-05-10T22:34:24.263Z,13.90
2018-05-10T22:36:51.893Z,15.73
2018-05-10T22:39:19.582Z,14.10
2018-05-10T22:41:47.349Z,15.43
2018-05-10T22:44:15.011Z,15.90
2018-05-10T22:46:42.666Z,16.87
2018-05-10T22:49:10.338Z,16.53
2018-05-10T22:51:37.950Z,16.50
2018-05-10T22:54:05.605Z,17.93
2018-05-10T22:56:33.318Z,18.30
2018-05-10T22:59:00.983Z,16.60
2018-05-10T23:01:28.599Z,18.93
2018-05-10T23:03:56.234Z,18.83
2018-05-10T23:06:23.842Z,20.70
2018-05-10T23:08:51.495Z,17.20
2018-05-10T23:11:19.106Z,19.17
2018-05-10T23:13:46.858Z,20.30
2018-05-10T23:16:14.469Z,20.50
2018-05-10T23:18:42.101Z,22.47
2018-05-10T23:21:09.713Z,24.70
2018-05-10T23:23:37.398Z,24.47
2018-05-10T23:26:05.011Z,25.13
2018-05-10T23:28:32.651Z,26.37
2018-05-10T23:31:00.269Z,25.57
2018-05-10T23:33:27.908Z,26.10
2018-05-10T23:35:55.570Z,28.80
2018-05-10T23:38:23.202Z,30.17
2018-05-10T23:40:50.831Z,32.03
2018-05-10T23:43:18.463Z,31.73
2018-05-10T23:45:46.177Z,34.60
2018-05-10T23:48:13.923Z,34.30
2018-05-10T23:50:41.531Z,38.80
2018-05-10T23:53:09.251Z,35.50
2018-05-10T23:55:36.914Z,35.43
2018-05-10T23:58:04.570Z,35.70
